createdAt,value
2019-04-14T00:01:36.976Z,57.54
2019-04-14T00:04:13.925Z,57.32
2019-04-14T00:06:44.185Z,57.50
2019-04-14T00:09:16.254Z,57.58
2019-04-14T00:11:46.376Z,57.73
2019-04-14T00:14:16.393Z,57.75
2019-04-14T00:16:46.673Z,57.97
2019-04-14T00:19:15.524Z,57.88
2019-04-14T00:21:45.451Z,58.11
2019-04-14T00:24:14.782Z,57.94
2019-04-14T00:26:44.517Z,57.89
2019-04-14T00:29:13.494Z,57.85
2019-04-14T00:31:43.322Z,57.68
2019-04-14T00:34:35.310Z,57.88
2019-04-14T00:37:29.495Z,57.70
2019-04-14T00:40:03.954Z,57.47
2019-04-14T00:42:45.421Z,57.28
2019-04-14T00:45:32.178Z,57.88
2019-04-14T00:48:09.077Z,58.30
2019-04-14T00:50:31.996Z,58.18
2019-04-14T00:53:01.251Z,58.01
2019-04-14T00:55:31.441Z,57.94
2019-04-14T00:58:01.625Z,58.29
2019-04-14T01:00:32.026Z,57.88
2019-04-14T01:03:01.037Z,57.77
2019-04-14T01:05:32.628Z,58.12
2019-04-14T01:08:00.961Z,58.84
2019-04-14T01:10:32.785Z,58.51
2019-04-14T01:13:02.855Z,58.55
2019-04-14T01:15:44.854Z,58.03
2019-04-14T01:18:03.526Z,57.74
2019-04-14T01:20:33.865Z,58.22
2019-04-14T01:23:04.082Z,58.46
2019-04-14T01:25:33.197Z,58.29
2019-04-14T01:28:02.505Z,58.81
2019-04-14T01:30:32.628Z,58.64
2019-04-14T01:33:03.288Z,58.50
2019-04-14T01:35:33.440Z,58.60
2019-04-14T01:38:03.681Z,58.99
2019-04-14T01:40:33.791Z,58.78
2019-04-14T01:43:03.836Z,58.75
2019-04-14T01:45:34.563Z,58.68
2019-04-14T01:48:03.856Z,58.75
2019-04-14T01:50:49.481Z,58.54
2019-04-14T01:53:29.299Z,58.73
2019-04-14T01:56:05.699Z,58.43
2019-04-14T01:58:44.710Z,58.44
2019-04-14T02:01:21.715Z,58.68
2019-04-14T02:03:51.932Z,59.05
2019-04-14T02:06:22.323Z,59.16
2019-04-14T02:08:52.206Z,59.11
2019-04-14T02:11:22.536Z,59.06
2019-04-14T02:14:37.195Z,59.02
2019-04-14T02:57:01.992Z,60.59
2019-04-14T02:59:19.717Z,60.54
2019-04-14T03:02:10.299Z,61.20
2019-04-14T03:04:25.825Z,61.24
2019-04-14T03:06:55.157Z,61.50
2019-04-14T03:09:38.793Z,61.45
2019-04-14T03:14:31.210Z,62.17
2019-04-14T03:20:20.730Z,62.10
2019-04-14T03:22:43.898Z,62.19
2019-04-14T03:25:09.797Z,62.10
2019-04-14T03:27:54.748Z,61.88
2019-04-14T03:36:08.984Z,62.17
2019-04-14T03:43:11.293Z,62.43
2019-04-14T03:45:45.119Z,62.72
2019-04-14T03:48:48.629Z,62.83
2019-04-14T03:50:37.058Z,62.75
2019-04-14T03:55:58.506Z,62.72
2019-04-14T03:58:22.591Z,62.57
2019-04-14T04:00:51.656Z,62.14
2019-04-14T04:03:21.673Z,62.03
2019-04-14T04:05:52.077Z,62.44
2019-04-14T04:08:22.248Z,62.71
2019-04-14T04:10:51.825Z,63.32
2019-04-14T04:13:21.995Z,63.78
2019-04-14T04:15:52.015Z,63.62
2019-04-14T04:18:24.107Z,63.58
2019-04-14T04:21:09.546Z,63.21
2019-04-14T04:24:00.314Z,62.96
2019-04-14T04:26:51.793Z,62.93
2019-04-14T04:29:37.829Z,63.56
2019-04-14T04:32:29.761Z,63.98
2019-04-14T04:35:08.555Z,64.08
2019-04-14T04:37:50.190Z,63.72
2019-04-14T04:40:24.941Z,64.31
2019-04-14T04:42:54.819Z,64.25
2019-04-14T04:45:23.955Z,64.12
2019-04-14T04:47:53.499Z,63.98
2019-04-14T04:50:22.416Z,64.24
2019-04-14T04:52:51.816Z,64.67
2019-04-14T04:55:21.989Z,64.34
2019-04-14T04:57:51.054Z,64.59
2019-04-14T05:00:22.204Z,64.47
2019-04-14T05:02:51.085Z,64.33
2019-04-14T05:05:56.011Z,64.13
2019-04-14T05:08:26.198Z,64.51
2019-04-14T05:11:01.119Z,64.67
2019-04-14T05:13:35.931Z,64.91
2019-04-14T05:16:06.241Z,65.14
2019-04-14T05:18:35.552Z,65.52
2019-04-14T05:21:05.961Z,65.53
2019-04-14T05:23:35.089Z,65.55
2019-04-14T05:26:04.868Z,65.64
2019-04-14T05:28:33.707Z,65.35
2019-04-14T05:31:03.340Z,65.84
2019-04-14T05:33:33.565Z,65.85
2019-04-14T05:36:06.257Z,65.83
2019-04-14T05:38:36.653Z,65.58
2019-04-14T05:41:06.869Z,65.28
2019-04-14T05:43:56.568Z,64.93
2019-04-14T05:46:23.066Z,64.80
2019-04-14T05:48:52.071Z,64.78
2019-04-14T05:51:23.125Z,64.53
2019-04-14T05:53:52.397Z,64.49
2019-04-14T05:56:21.624Z,64.39
2019-04-14T05:58:51.528Z,64.62
2019-04-14T06:01:27.050Z,64.34
2019-04-14T06:03:56.144Z,64.12
2019-04-14T06:06:25.250Z,63.92
2019-04-14T06:08:54.326Z,63.77
2019-04-14T06:11:23.329Z,63.81
2019-04-14T06:13:52.385Z,63.64
2019-04-14T06:16:29.689Z,63.44
2019-04-14T06:18:58.607Z,63.29
2019-04-14T06:21:27.645Z,62.95
2019-04-14T06:23:56.636Z,62.89
2019-04-14T06:26:25.563Z,62.66
2019-04-14T06:28:56.570Z,62.02
2019-04-14T06:31:46.344Z,61.41
2019-04-14T06:34:20.023Z,60.64
2019-04-14T06:36:59.060Z,60.01
2019-04-14T06:39:36.979Z,59.92
2019-04-14T06:42:06.112Z,59.82
2019-04-14T06:44:36.109Z,59.56
2019-04-14T06:47:05.191Z,59.83
2019-04-14T06:49:48.223Z,59.54
2019-04-14T06:52:07.087Z,59.64
2019-04-14T06:54:36.116Z,59.67
2019-04-14T06:57:05.223Z,60.09
2019-04-14T06:59:36.193Z,58.69
2019-04-14T07:02:05.259Z,57.03
2019-04-14T07:04:34.246Z,56.14
2019-04-14T07:07:03.172Z,55.37
2019-04-14T07:09:33.244Z,52.79
2019-04-14T07:12:02.391Z,51.27
2019-04-14T07:14:32.089Z,51.13
2019-04-14T07:17:01.344Z,49.88
2019-04-14T07:19:39.806Z,49.09
2019-04-14T07:22:08.859Z,46.41
2019-04-14T07:24:37.962Z,45.82
2019-04-14T07:27:06.855Z,44.39
2019-04-14T07:29:42.114Z,42.39
2019-04-14T07:32:40.600Z,42.05
2019-04-14T07:35:34.463Z,41.20
2019-04-14T07:38:10.644Z,39.75
2019-04-14T07:41:04.383Z,40.34
2019-04-14T07:43:47.112Z,40.32
2019-04-14T07:46:49.217Z,39.52
2019-04-14T07:49:39.935Z,38.70
2019-04-14T07:52:40.767Z,38.05
2019-04-14T07:55:31.724Z,37.12
2019-04-14T07:58:06.500Z,38.22
2019-04-14T08:00:52.632Z,37.53
2019-04-14T08:03:33.548Z,38.92
2019-04-14T08:06:02.530Z,38.68
2019-04-14T08:08:31.384Z,39.24
2019-04-14T08:11:00.372Z,40.24
2019-04-14T08:13:31.634Z,40.87
2019-04-14T08:16:00.743Z,41.53
2019-04-14T08:18:29.961Z,41.41
2019-04-14T08:21:00.681Z,41.31
2019-04-14T08:23:29.676Z,41.84
2019-04-14T08:25:58.760Z,41.34
2019-04-14T08:28:34.981Z,41.78
2019-04-14T08:31:04.048Z,41.30
2019-04-14T08:33:33.192Z,40.84
2019-04-14T08:36:13.328Z,41.62
2019-04-14T08:38:42.407Z,41.72
2019-04-14T08:41:11.418Z,41.68
2019-04-14T08:44:02.585Z,41.58
2019-04-14T08:46:49.844Z,42.52
2019-04-14T08:49:49.750Z,41.58
2019-04-14T08:52:36.088Z,40.56
2019-04-14T08:55:16.283Z,41.12
2019-04-14T08:57:52.814Z,40.43
2019-04-14T09:00:32.114Z,41.57
2019-04-14T09:03:20.140Z,42.30
2019-04-14T09:06:03.470Z,41.84
2019-04-14T09:08:36.792Z,41.69
2019-04-14T09:11:07.463Z,40.95
2019-04-14T09:13:42.536Z,40.69
2019-04-14T09:16:11.491Z,41.00
2019-04-14T09:18:40.594Z,41.62
2019-04-14T09:21:09.451Z,40.77
2019-04-14T09:23:38.522Z,41.36
2019-04-14T09:26:07.572Z,42.32
2019-04-14T09:28:36.575Z,40.26
2019-04-14T09:31:05.609Z,41.32
2019-04-14T09:33:37.927Z,41.60
2019-04-14T09:36:07.038Z,41.48
2019-04-14T09:38:36.031Z,41.02
2019-04-14T09:41:05.129Z,41.67
2019-04-14T09:43:34.064Z,41.41
2019-04-14T09:46:03.198Z,42.75
2019-04-14T09:48:32.123Z,43.07
2019-04-14T09:51:09.211Z,41.77
2019-04-14T09:53:42.648Z,42.07
2019-04-14T09:56:11.740Z,42.92
2019-04-14T09:58:40.984Z,43.62
2019-04-14T10:01:10.066Z,42.30
2019-04-14T10:03:43.017Z,40.23
2019-04-14T10:06:13.058Z,42.00
2019-04-14T10:08:44.150Z,42.40
2019-04-14T10:11:15.421Z,40.76
2019-04-14T10:13:52.476Z,40.39
2019-04-14T10:16:21.545Z,41.70
2019-04-14T10:18:50.678Z,41.64
2019-04-14T10:21:19.705Z,39.49
2019-04-14T10:23:51.843Z,40.20
2019-04-14T10:26:24.226Z,40.17
2019-04-14T10:29:00.255Z,38.99
2019-04-14T10:31:29.354Z,40.16
2019-04-14T10:33:58.333Z,39.31
2019-04-14T10:36:27.554Z,38.69
2019-04-14T10:38:56.588Z,38.55
2019-04-14T10:41:25.506Z,40.85
2019-04-14T10:43:55.594Z,39.16
2019-04-14T10:46:24.630Z,35.29
2019-04-14T10:48:54.733Z,38.34
2019-04-14T10:51:30.055Z,37.76
2019-04-14T10:53:56.506Z,39.06
2019-04-14T10:56:25.594Z,38.51
2019-04-14T10:58:54.778Z,38.52
2019-04-14T11:01:27.034Z,37.60
2019-04-14T11:04:09.102Z,38.17
2019-04-14T11:07:09.125Z,37.91
2019-04-14T11:10:02.388Z,35.52
2019-04-14T11:12:36.191Z,36.47
2019-04-14T11:15:30.556Z,40.76
2019-04-14T11:18:06.764Z,40.34
2019-04-14T11:20:35.659Z,40.32
2019-04-14T11:23:16.714Z,39.57
2019-04-14T11:25:46.823Z,39.08
2019-04-14T11:28:15.754Z,39.01
2019-04-14T11:30:44.784Z,39.13
2019-04-14T11:33:32.048Z,39.76
2019-04-14T11:36:23.130Z,37.37
2019-04-14T11:38:59.962Z,38.43
2019-04-14T11:41:28.861Z,39.04
2019-04-14T11:43:57.957Z,39.49
2019-04-14T11:46:26.847Z,39.04
2019-04-14T11:48:56.127Z,40.13
2019-04-14T11:51:25.055Z,39.97
2019-04-14T11:53:54.177Z,39.34
2019-04-14T11:56:23.621Z,41.37
2019-04-14T11:58:56.007Z,38.92
2019-04-14T12:01:53.145Z,40.25
2019-04-14T12:04:52.919Z,40.39
2019-04-14T12:07:43.798Z,40.25
2019-04-14T12:10:15.874Z,38.81
2019-04-14T12:12:45.061Z,38.95
2019-04-14T12:15:16.524Z,39.04
2019-04-14T12:17:45.320Z,38.56
2019-04-14T12:20:18.789Z,38.29
2019-04-14T12:22:47.975Z,39.24
2019-04-14T12:25:19.525Z,40.43
2019-04-14T12:27:51.572Z,40.53
2019-04-14T12:30:22.296Z,40.21
2019-04-14T12:32:51.783Z,39.79
2019-04-14T12:35:21.031Z,40.12
2019-04-14T12:37:53.429Z,39.45
2019-04-14T12:40:22.641Z,39.59
2019-04-14T12:43:10.725Z,38.54
2019-04-14T12:46:08.175Z,39.81
2019-04-14T12:49:00.170Z,40.10
2019-04-14T12:51:53.734Z,39.36
2019-04-14T12:54:26.591Z,38.55
2019-04-14T12:56:57.950Z,40.07
2019-04-14T12:59:39.155Z,38.12
2019-04-14T13:02:27.549Z,37.13
2019-04-14T13:04:56.585Z,38.78
2019-04-14T13:07:37.927Z,38.07
2019-04-14T13:10:08.160Z,39.10
2019-04-14T13:12:39.550Z,39.70
2019-04-14T13:15:08.755Z,40.39
2019-04-14T13:17:55.618Z,40.65
2019-04-14T13:20:39.149Z,41.31
2019-04-14T13:23:09.335Z,40.98
2019-04-14T13:25:38.690Z,41.93
2019-04-14T13:28:08.076Z,41.47
2019-04-14T13:30:43.999Z,41.28
2019-04-14T13:33:13.212Z,41.33
2019-04-14T13:35:42.396Z,41.85
2019-04-14T13:38:11.544Z,41.67
2019-04-14T13:40:43.930Z,41.93
2019-04-14T13:43:15.200Z,41.62
2019-04-14T13:45:45.176Z,41.13
2019-04-14T13:48:21.608Z,41.84
2019-04-14T13:50:50.786Z,41.61
2019-04-14T13:53:21.035Z,42.06
2019-04-14T13:55:50.211Z,42.26
2019-04-14T13:58:24.620Z,43.12
2019-04-14T14:01:16.840Z,44.05
2019-04-14T14:03:57.377Z,43.54
2019-04-14T14:06:26.480Z,43.46
2019-04-14T14:08:55.544Z,44.19
2019-04-14T14:11:41.986Z,44.39
2019-04-14T14:14:21.824Z,45.83
2019-04-14T14:17:27.225Z,44.78
2019-04-14T14:20:35.806Z,45.02
2019-04-14T14:23:27.684Z,45.99
2019-04-14T14:26:10.522Z,46.53
2019-04-14T14:28:39.732Z,45.84
2019-04-14T14:31:09.075Z,45.55
2019-04-14T14:33:41.542Z,46.54
2019-04-14T14:36:26.680Z,46.82
2019-04-14T14:39:16.331Z,45.90
2019-04-14T14:41:51.601Z,45.86
2019-04-14T14:44:25.651Z,46.43
2019-04-14T14:47:15.120Z,47.03
2019-04-14T14:50:18.211Z,46.96
2019-04-14T14:53:22.176Z,46.80
2019-04-14T14:55:50.522Z,47.69
2019-04-14T14:58:22.228Z,46.73
2019-04-14T15:00:51.377Z,46.74
2019-04-14T15:03:21.524Z,47.28
2019-04-14T15:05:50.521Z,46.94
2019-04-14T15:08:19.641Z,45.58
2019-04-14T15:10:48.775Z,46.19
2019-04-14T15:13:17.904Z,47.02
2019-04-14T15:15:47.052Z,46.71
2019-04-14T15:18:16.161Z,45.61
2019-04-14T15:20:45.226Z,46.48
2019-04-14T15:23:24.850Z,47.37
2019-04-14T15:25:48.963Z,47.36
2019-04-14T15:28:18.395Z,47.15
2019-04-14T15:30:47.540Z,47.08
2019-04-14T15:33:16.718Z,46.91
2019-04-14T15:35:45.826Z,48.25
2019-04-14T15:38:16.838Z,47.77
2019-04-14T15:40:46.148Z,48.09
2019-04-14T15:43:19.949Z,47.95
2019-04-14T15:46:06.592Z,48.01
2019-04-14T15:48:39.658Z,48.48
2019-04-14T15:51:08.902Z,48.11
2019-04-14T15:53:38.565Z,48.40
2019-04-14T15:56:08.654Z,48.46
2019-04-14T15:59:02.704Z,47.82
2019-04-14T16:01:51.181Z,49.57
2019-04-14T16:04:31.829Z,50.05
2019-04-14T16:07:21.762Z,50.45
2019-04-14T16:10:05.955Z,51.99
2019-04-14T16:12:56.713Z,52.22
2019-04-14T16:15:59.946Z,52.71
2019-04-14T16:18:46.751Z,53.95
2019-04-14T16:21:15.865Z,55.30
2019-04-14T16:23:50.885Z,55.51
2019-04-14T16:26:20.761Z,56.35
2019-04-14T16:29:14.925Z,56.48
2019-04-14T16:32:09.188Z,57.58
2019-04-14T16:34:53.979Z,57.49
2019-04-14T16:37:22.950Z,58.91
2019-04-14T16:39:51.939Z,58.95
2019-04-14T16:42:20.889Z,59.48
2019-04-14T16:44:49.998Z,59.37
2019-04-14T16:47:19.046Z,58.90
2019-04-14T16:49:48.116Z,59.46
2019-04-14T16:52:45.399Z,58.56
2019-04-14T16:55:23.618Z,60.05
2019-04-14T16:58:10.513Z,59.69
2019-04-14T17:00:42.883Z,59.93
2019-04-14T17:03:11.810Z,61.07
2019-04-14T17:05:40.685Z,61.40
2019-04-14T17:08:09.576Z,61.10
2019-04-14T17:10:38.451Z,60.98
2019-04-14T17:13:07.467Z,61.71
2019-04-14T17:15:59.414Z,62.52
2019-04-14T17:19:04.610Z,63.24
2019-04-14T17:21:49.739Z,63.64
2019-04-14T17:24:32.823Z,64.83
2019-04-14T17:27:10.887Z,64.39
2019-04-14T17:29:49.249Z,64.03
2019-04-14T17:32:30.420Z,64.36
2019-04-14T17:35:21.259Z,63.61
2019-04-14T17:37:53.783Z,63.60
2019-04-14T17:40:33.002Z,64.59
2019-04-14T17:43:11.882Z,64.24
2019-04-14T17:45:58.826Z,64.90
2019-04-14T17:48:47.778Z,65.56
2019-04-14T17:51:35.735Z,65.13
2019-04-14T17:54:30.001Z,65.04
2019-04-14T17:57:16.812Z,65.82
2019-04-14T17:59:54.141Z,65.89
2019-04-14T18:02:30.804Z,66.10
2019-04-14T18:05:09.098Z,66.38
2019-04-14T18:08:06.253Z,66.80
2019-04-14T18:10:44.159Z,67.14
2019-04-14T18:13:20.674Z,67.30
2019-04-14T18:16:01.449Z,67.30
2019-04-14T18:18:51.425Z,67.40
2019-04-14T18:21:20.450Z,67.53
2019-04-14T18:23:49.486Z,68.30
2019-04-14T18:26:18.440Z,68.27
2019-04-14T18:29:13.293Z,69.45
2019-04-14T18:31:52.180Z,68.80
2019-04-14T18:34:52.498Z,68.94
2019-04-14T18:37:43.802Z,68.61
2019-04-14T18:40:40.943Z,68.45
2019-04-14T18:43:31.988Z,68.41
2019-04-14T18:46:20.051Z,67.65
2019-04-14T18:48:57.248Z,68.11
2019-04-14T18:51:34.623Z,68.76
2019-04-14T18:54:38.146Z,68.91
2019-04-14T18:57:24.178Z,68.77
2019-04-14T19:00:03.526Z,68.72
2019-04-14T19:02:32.528Z,68.61
2019-04-14T19:05:01.501Z,69.12
2019-04-14T19:07:30.476Z,69.35
2019-04-14T19:09:59.543Z,69.27
2019-04-14T19:12:45.386Z,69.44
2019-04-14T19:15:38.671Z,69.46
2019-04-14T19:18:44.763Z,69.75
2019-04-14T19:21:18.631Z,69.68
2019-04-14T19:23:48.687Z,69.92
2019-04-14T19:26:27.375Z,69.29
2019-04-14T19:28:56.351Z,69.29
2019-04-14T19:31:27.283Z,69.26
2019-04-14T19:33:56.239Z,69.39
2019-04-14T19:36:25.272Z,69.53
2019-04-14T19:38:54.288Z,69.91
2019-04-14T19:41:23.300Z,70.20
2019-04-14T19:43:52.186Z,69.85
2019-04-14T19:46:21.672Z,69.62
2019-04-14T19:48:50.656Z,69.72
2019-04-14T19:51:20.525Z,69.67
2019-04-14T19:53:57.507Z,69.83
2019-04-14T19:56:26.502Z,70.14
2019-04-14T19:58:55.496Z,69.98
2019-04-14T20:01:24.445Z,70.24
2019-04-14T20:03:53.422Z,70.46
2019-04-14T20:06:22.656Z,70.64
2019-04-14T20:08:52.676Z,70.69
2019-04-14T20:11:23.687Z,70.74
2019-04-14T20:13:52.648Z,70.54
2019-04-14T20:16:39.451Z,70.60
2019-04-14T20:19:27.926Z,70.90
2019-04-14T20:22:09.917Z,70.65
2019-04-14T20:24:47.475Z,70.86
2019-04-14T20:27:23.414Z,71.19
2019-04-14T20:29:54.764Z,71.77
2019-04-14T20:32:26.679Z,72.01
2019-04-14T20:34:55.775Z,72.48
2019-04-14T20:37:25.975Z,72.38
2019-04-14T20:39:55.968Z,72.52
2019-04-14T20:42:24.957Z,72.67
2019-04-14T20:44:54.275Z,73.33
2019-04-14T20:47:23.282Z,73.54
2019-04-14T20:49:52.118Z,73.65
2019-04-14T20:52:21.937Z,74.02
2019-04-14T20:54:51.845Z,74.33
2019-04-14T20:57:20.837Z,74.59
2019-04-14T20:59:49.716Z,74.66
2019-04-14T21:02:38.775Z,74.66
2019-04-14T21:05:29.836Z,74.85
2019-04-14T21:08:23.902Z,74.87
2019-04-14T21:11:04.357Z,75.21
2019-04-14T21:13:52.264Z,75.25
2019-04-14T21:16:31.016Z,75.59
2019-04-14T21:19:08.012Z,75.69
2019-04-14T21:22:03.011Z,76.23
2019-04-14T21:24:42.420Z,76.39
2019-04-14T21:27:17.736Z,76.32
2019-04-14T21:30:04.331Z,76.46
2019-04-14T21:32:37.888Z,76.69
2019-04-14T21:35:25.887Z,76.99
2019-04-14T21:38:08.994Z,77.21
2019-04-14T21:40:59.843Z,77.20
2019-04-14T21:43:28.953Z,77.31
2019-04-14T21:45:58.958Z,77.39
2019-04-14T21:48:27.782Z,77.35
2019-04-14T21:50:56.667Z,77.55
2019-04-14T21:53:25.605Z,77.51
2019-04-14T21:55:54.573Z,77.60
2019-04-14T21:58:41.120Z,77.53
2019-04-14T22:01:50.556Z,77.51
2019-04-14T22:04:36.285Z,77.67
2019-04-14T22:07:20.087Z,78.06
2019-04-14T22:09:49.448Z,78.27
2019-04-14T22:12:18.350Z,78.47
2019-04-14T22:14:48.194Z,78.62
2019-04-14T22:17:17.158Z,78.76
2019-04-14T22:19:46.006Z,78.91
2019-04-14T22:22:14.740Z,78.91
2019-04-14T22:24:43.739Z,78.87
2019-04-14T22:27:12.571Z,78.86
2019-04-14T22:29:41.433Z,78.94
2019-04-14T22:32:10.696Z,78.95
2019-04-14T22:34:39.588Z,79.05
2019-04-14T22:37:08.569Z,79.24
2019-04-14T22:39:39.269Z,79.22
2019-04-14T22:42:08.127Z,79.22
2019-04-14T22:44:37.021Z,79.41
2019-04-14T22:47:06.002Z,79.53
2019-04-14T22:49:34.897Z,79.62
2019-04-14T22:52:04.012Z,79.69
2019-04-14T22:54:32.894Z,79.72
2019-04-14T22:57:01.801Z,79.58
2019-04-14T22:59:30.650Z,79.44
2019-04-14T23:02:06.832Z,79.52
2019-04-14T23:05:00.466Z,79.76
2019-04-14T23:07:45.478Z,79.70
2019-04-14T23:10:48.787Z,79.58
2019-04-14T23:13:36.684Z,79.46
2019-04-14T23:16:24.540Z,79.34
2019-04-14T23:19:02.065Z,79.35
2019-04-14T23:22:01.978Z,79.33
2019-04-14T23:24:34.312Z,79.32
2019-04-14T23:27:03.199Z,79.28
2019-04-14T23:29:32.294Z,79.27
2019-04-14T23:32:01.131Z,79.28
2019-04-14T23:34:30.012Z,79.33
2019-04-14T23:36:58.956Z,79.34
2019-04-14T23:39:27.867Z,79.21
2019-04-14T23:41:56.751Z,79.17
2019-04-14T23:44:25.774Z,79.11
2019-04-14T23:46:54.565Z,79.40
2019-04-14T23:49:23.446Z,79.51
2019-04-14T23:51:52.911Z,79.53
2019-04-14T23:54:21.942Z,79.54
2019-04-14T23:56:50.882Z,79.56
2019-04-14T23:59:19.721Z,79.67
